createdAt,value
2023-03-13T00:00:18.520Z,5.10
2023-03-13T00:01:18.618Z,5.16
2023-03-13T00:02:18.731Z,5.16
2023-03-13T00:03:18.780Z,5.16
2023-03-13T00:04:18.858Z,5.10
2023-03-13T00:05:19.028Z,5.21
2023-03-13T00:06:19.040Z,5.10
2023-03-13T00:07:19.103Z,5.37
2023-03-13T00:08:19.205Z,5.42
2023-03-13T00:09:19.270Z,5.10
2023-03-13T00:10:19.322Z,5.16
2023-03-13T00:11:19.408Z,5.10
2023-03-13T00:12:19.483Z,5.16
2023-03-13T00:13:19.546Z,5.16
2023-03-13T00:14:19.664Z,5.10
2023-03-13T00:15:19.729Z,5.10
2023-03-13T00:16:19.919Z,5.21
2023-03-13T00:17:19.897Z,5.16
2023-03-13T00:18:19.968Z,5.16
2023-03-13T00:19:20.031Z,5.16
2023-03-13T00:20:20.142Z,5.16
2023-03-13T00:21:20.221Z,5.16
2023-03-13T00:22:20.302Z,5.16
2023-03-13T00:23:20.396Z,5.10
2023-03-13T00:24:20.496Z,5.10
2023-03-13T00:25:20.577Z,5.10
2023-03-13T00:26:20.644Z,5.10
2023-03-13T00:27:20.742Z,5.16
2023-03-13T00:28:26.796Z,5.10
2023-03-13T00:29:20.928Z,5.16
2023-03-13T00:30:21.004Z,5.16
2023-03-13T00:31:21.287Z,5.10
2023-03-13T00:32:21.200Z,5.10
2023-03-13T00:33:21.205Z,5.16
2023-03-13T00:34:21.289Z,5.16
2023-03-13T00:35:21.438Z,5.16
2023-03-13T00:36:21.507Z,5.10
2023-03-13T00:37:21.547Z,5.10
2023-03-13T00:38:21.643Z,5.16
2023-03-13T00:39:21.702Z,5.10
2023-03-13T00:40:21.778Z,5.10
2023-03-13T00:41:21.857Z,5.16
2023-03-13T00:42:21.946Z,5.10
2023-03-13T00:43:22.030Z,5.16
2023-03-13T00:44:22.071Z,5.10
2023-03-13T00:45:22.148Z,5.16
2023-03-13T00:46:22.303Z,5.16
2023-03-13T00:47:22.316Z,5.16
2023-03-13T00:48:22.423Z,5.16
2023-03-13T00:49:22.489Z,5.10
2023-03-13T00:50:22.580Z,5.16
2023-03-13T00:51:22.658Z,5.16
2023-03-13T00:52:22.741Z,5.16
2023-03-13T00:53:22.849Z,5.16
2023-03-13T00:54:22.916Z,5.16
2023-03-13T00:55:23.013Z,5.10
2023-03-13T00:56:23.097Z,5.16
2023-03-13T00:57:23.156Z,5.10
2023-03-13T00:58:23.254Z,5.16
2023-03-13T00:59:29.835Z,5.16
2023-03-13T01:00:23.422Z,5.16
2023-03-13T01:01:23.525Z,5.16
2023-03-13T01:02:23.778Z,5.16
2023-03-13T01:03:23.834Z,5.10
2023-03-13T01:04:23.795Z,5.16
2023-03-13T01:05:23.853Z,5.16
2023-03-13T01:06:23.911Z,5.16
2023-03-13T01:07:23.994Z,5.16
2023-03-13T01:08:24.089Z,5.10
2023-03-13T01:09:24.164Z,5.10
2023-03-13T01:10:24.239Z,5.10
2023-03-13T01:11:24.339Z,5.10
2023-03-13T01:12:24.391Z,5.16
2023-03-13T01:13:24.499Z,5.10
2023-03-13T01:14:24.584Z,5.10
2023-03-13T01:15:24.667Z,5.16
2023-03-13T01:16:24.770Z,5.16
2023-03-13T01:17:24.842Z,5.16
2023-03-13T01:18:24.918Z,5.16
2023-03-13T01:19:25.008Z,5.16
2023-03-13T01:20:25.114Z,5.16
2023-03-13T01:21:25.194Z,5.10
2023-03-13T01:22:25.278Z,5.10
2023-03-13T01:23:25.342Z,5.10
2023-03-13T01:24:25.428Z,5.16
2023-03-13T01:25:25.522Z,5.16
2023-03-13T01:26:25.609Z,5.16
2023-03-13T01:27:25.720Z,5.16
2023-03-13T01:28:25.784Z,5.16
2023-03-13T01:29:25.846Z,5.10
2023-03-13T01:30:31.907Z,5.16
2023-03-13T01:31:26.080Z,5.10
2023-03-13T01:32:26.166Z,5.05
2023-03-13T01:33:26.198Z,5.16
2023-03-13T01:34:26.244Z,5.16
2023-03-13T01:35:26.368Z,5.16
2023-03-13T01:36:26.413Z,5.10
2023-03-13T01:37:26.510Z,5.21
2023-03-13T01:38:26.623Z,5.16
2023-03-13T01:39:26.707Z,5.05
2023-03-13T01:40:26.793Z,5.21
2023-03-13T01:41:26.868Z,5.10
2023-03-13T01:42:26.930Z,5.10
2023-03-13T01:43:27.742Z,5.10
2023-03-13T01:44:27.135Z,5.10
2023-03-13T01:45:27.197Z,5.10
2023-03-13T01:46:27.317Z,5.16
2023-03-13T01:47:27.370Z,5.10
2023-03-13T01:48:27.430Z,5.10
2023-03-13T01:49:27.520Z,5.16
2023-03-13T01:50:27.564Z,5.21
2023-03-13T01:51:27.666Z,5.10
2023-03-13T01:52:27.776Z,5.16
2023-03-13T01:53:27.857Z,5.10
2023-03-13T01:54:27.940Z,5.16
2023-03-13T01:55:28.051Z,5.16
2023-03-13T01:56:28.088Z,5.10
2023-03-13T01:57:28.150Z,5.10
2023-03-13T01:58:28.246Z,5.10
2023-03-13T01:59:28.320Z,5.16
2023-03-13T02:00:28.398Z,5.16
2023-03-13T02:01:34.938Z,5.10
2023-03-13T02:02:28.663Z,5.16
2023-03-13T02:03:28.646Z,5.10
2023-03-13T02:04:28.727Z,5.16
2023-03-13T02:05:28.810Z,5.16
2023-03-13T02:06:28.860Z,5.10
2023-03-13T02:07:28.963Z,5.10
2023-03-13T02:08:29.027Z,5.21
2023-03-13T02:09:29.070Z,5.16
2023-03-13T02:10:29.169Z,5.16
2023-03-13T02:11:29.256Z,5.10
2023-03-13T02:12:29.367Z,5.16
2023-03-13T02:13:29.439Z,5.16
2023-03-13T02:14:29.516Z,5.16
2023-03-13T02:15:29.592Z,5.10
2023-03-13T02:16:29.749Z,5.10
2023-03-13T02:17:29.768Z,5.16
2023-03-13T02:18:29.872Z,5.16
2023-03-13T02:19:29.916Z,5.10
2023-03-13T02:20:29.982Z,5.10
2023-03-13T02:21:30.055Z,5.21
2023-03-13T02:22:30.152Z,5.26
2023-03-13T02:23:30.223Z,5.16
2023-03-13T02:24:30.330Z,5.10
2023-03-13T02:25:30.412Z,5.16
2023-03-13T02:26:30.480Z,5.16
2023-03-13T02:27:30.548Z,5.16
2023-03-13T02:28:30.626Z,5.10
2023-03-13T02:29:30.725Z,5.10
2023-03-13T02:30:30.792Z,5.21
2023-03-13T02:31:30.924Z,5.26
2023-03-13T02:32:37.011Z,5.16
2023-03-13T02:33:31.066Z,5.16
2023-03-13T02:34:31.166Z,5.10
2023-03-13T02:35:31.294Z,5.16
2023-03-13T02:36:31.347Z,5.16
2023-03-13T02:37:31.402Z,5.16
2023-03-13T02:38:31.491Z,5.26
2023-03-13T02:39:31.598Z,5.10
2023-03-13T02:40:31.676Z,5.16
2023-03-13T02:41:31.731Z,5.16
2023-03-13T02:42:31.830Z,5.16
2023-03-13T02:43:31.912Z,5.10
2023-03-13T02:44:32.048Z,5.10
2023-03-13T02:45:32.076Z,5.16
2023-03-13T02:46:32.193Z,5.10
2023-03-13T02:47:32.258Z,5.16
2023-03-13T02:48:32.301Z,5.10
2023-03-13T02:49:32.390Z,5.16
2023-03-13T02:50:32.477Z,5.05
2023-03-13T02:51:32.657Z,5.10
2023-03-13T02:52:32.650Z,5.16
2023-03-13T02:53:32.735Z,5.10
2023-03-13T02:54:32.821Z,5.10
2023-03-13T02:55:32.905Z,5.16
2023-03-13T02:56:33.008Z,5.10
2023-03-13T02:57:33.107Z,5.16
2023-03-13T02:58:35.550Z,5.16
2023-03-13T02:59:33.240Z,5.16
2023-03-13T03:00:33.354Z,5.21
2023-03-13T03:01:33.387Z,5.10
2023-03-13T03:02:33.519Z,5.16
2023-03-13T03:03:39.646Z,5.16
2023-03-13T03:04:33.637Z,5.21
2023-03-13T03:05:33.719Z,5.21
2023-03-13T03:06:33.828Z,5.10
2023-03-13T03:07:33.907Z,5.10
2023-03-13T03:08:33.979Z,5.26
2023-03-13T03:09:34.037Z,5.16
2023-03-13T03:10:34.099Z,5.10
2023-03-13T03:11:34.173Z,5.10
2023-03-13T03:12:34.252Z,5.21
2023-03-13T03:13:34.318Z,5.16
2023-03-13T03:14:34.411Z,5.16
2023-03-13T03:15:34.474Z,5.16
2023-03-13T03:16:34.637Z,5.16
2023-03-13T03:17:34.705Z,5.16
2023-03-13T03:18:34.824Z,5.16
2023-03-13T03:19:34.839Z,5.16
2023-03-13T03:20:34.886Z,5.10
2023-03-13T03:21:34.991Z,5.16
2023-03-13T03:22:35.051Z,5.16
2023-03-13T03:23:35.134Z,5.16
2023-03-13T03:24:35.251Z,5.10
2023-03-13T03:25:35.325Z,5.16
2023-03-13T03:26:35.379Z,5.10
2023-03-13T03:27:35.461Z,5.10
2023-03-13T03:28:35.556Z,5.10
2023-03-13T03:29:35.659Z,5.16
2023-03-13T03:30:35.752Z,5.21
2023-03-13T03:31:35.877Z,5.10
2023-03-13T03:32:35.941Z,5.16
2023-03-13T03:33:35.956Z,5.16
2023-03-13T03:34:42.022Z,5.10
2023-03-13T03:35:36.214Z,5.10
2023-03-13T03:36:36.251Z,5.10
2023-03-13T03:37:36.296Z,5.10
2023-03-13T03:38:36.355Z,5.10
2023-03-13T03:39:36.417Z,5.16
2023-03-13T03:40:36.506Z,5.10
2023-03-13T03:41:36.599Z,5.16
2023-03-13T03:42:36.679Z,5.16
2023-03-13T03:43:36.748Z,5.16
2023-03-13T03:44:36.806Z,5.16
2023-03-13T03:45:36.927Z,5.16
2023-03-13T03:46:36.976Z,5.16
2023-03-13T03:47:37.087Z,5.16
2023-03-13T03:48:37.151Z,5.16
2023-03-13T03:49:37.244Z,5.16
2023-03-13T03:50:37.313Z,5.16
2023-03-13T03:51:37.394Z,5.16
2023-03-13T03:52:37.484Z,5.10
2023-03-13T03:53:37.546Z,5.10
2023-03-13T03:54:37.623Z,5.10
2023-03-13T03:55:37.695Z,5.21
2023-03-13T03:56:37.763Z,5.21
2023-03-13T03:57:37.829Z,5.16
2023-03-13T03:58:37.940Z,5.10
2023-03-13T03:59:38.024Z,5.16
2023-03-13T04:00:38.078Z,5.16
2023-03-13T04:01:38.159Z,5.10
2023-03-13T04:02:38.322Z,5.16
2023-03-13T04:03:38.363Z,5.21
2023-03-13T04:04:38.472Z,5.10
2023-03-13T04:05:44.771Z,5.16
2023-03-13T04:06:38.605Z,5.16
2023-03-13T04:07:38.686Z,5.10
2023-03-13T04:08:38.766Z,5.10
2023-03-13T04:09:38.865Z,5.16
2023-03-13T04:10:38.909Z,5.10
2023-03-13T04:11:38.983Z,5.10
2023-03-13T04:12:39.086Z,5.10
2023-03-13T04:13:39.144Z,5.16
2023-03-13T04:14:39.228Z,5.10
2023-03-13T04:15:39.335Z,5.10
2023-03-13T04:16:39.456Z,5.10
2023-03-13T04:17:39.503Z,5.16
2023-03-13T04:18:39.610Z,5.10
2023-03-13T04:19:39.672Z,5.16
2023-03-13T04:20:39.763Z,5.10
2023-03-13T04:21:39.875Z,5.16
2023-03-13T04:22:39.904Z,5.16
2023-03-13T04:23:39.981Z,5.10
2023-03-13T04:24:40.068Z,5.10
2023-03-13T04:25:40.147Z,5.16
2023-03-13T04:26:40.255Z,5.21
2023-03-13T04:27:40.309Z,5.10
2023-03-13T04:28:40.403Z,5.16
2023-03-13T04:29:40.492Z,5.16
2023-03-13T04:30:40.706Z,5.16
2023-03-13T04:31:40.767Z,5.10
2023-03-13T04:32:40.825Z,5.10
2023-03-13T04:33:40.847Z,5.10
2023-03-13T04:34:40.902Z,5.10
2023-03-13T04:35:41.155Z,5.16
2023-03-13T04:36:47.464Z,5.16
2023-03-13T04:37:41.168Z,5.10
2023-03-13T04:38:42.068Z,5.16
2023-03-13T04:39:41.310Z,5.10
2023-03-13T04:40:41.402Z,5.16
2023-03-13T04:41:41.494Z,5.10
2023-03-13T04:42:41.612Z,5.21
2023-03-13T04:43:41.670Z,5.10
2023-03-13T04:44:43.507Z,5.16
2023-03-13T04:45:41.861Z,5.10
2023-03-13T04:46:41.955Z,5.16
2023-03-13T04:47:42.049Z,5.16
2023-03-13T04:48:42.177Z,5.21
2023-03-13T04:49:42.187Z,5.16
2023-03-13T04:50:42.258Z,5.10
2023-03-13T04:51:42.320Z,5.10
2023-03-13T04:52:42.396Z,5.16
2023-03-13T04:53:42.489Z,5.16
2023-03-13T04:54:42.550Z,5.16
2023-03-13T04:55:42.624Z,5.10
2023-03-13T04:56:44.288Z,5.16
2023-03-13T04:57:42.795Z,5.21
2023-03-13T04:58:42.879Z,5.16
2023-03-13T04:59:42.989Z,5.10
2023-03-13T05:00:43.049Z,5.16
2023-03-13T05:01:43.201Z,5.10
2023-03-13T05:02:43.210Z,5.10
2023-03-13T05:03:43.297Z,5.16
2023-03-13T05:04:43.489Z,5.32
2023-03-13T05:05:43.449Z,5.16
2023-03-13T05:06:43.504Z,5.16
2023-03-13T05:07:49.553Z,5.10
2023-03-13T05:08:43.684Z,5.10
2023-03-13T05:09:43.759Z,5.10
2023-03-13T05:10:43.884Z,5.10
2023-03-13T05:11:43.950Z,4.94
2023-03-13T05:12:44.005Z,5.16
2023-03-13T05:13:44.087Z,5.10
2023-03-13T05:14:44.168Z,5.16
2023-03-13T05:15:44.288Z,5.10
2023-03-13T05:16:44.349Z,5.10
2023-03-13T05:17:44.405Z,5.21
2023-03-13T05:18:44.490Z,5.16
2023-03-13T05:19:44.587Z,5.16
2023-03-13T05:20:44.676Z,5.16
2023-03-13T05:21:44.769Z,5.21
2023-03-13T05:22:44.811Z,5.16
2023-03-13T05:23:44.914Z,5.16
2023-03-13T05:24:45.006Z,5.10
2023-03-13T05:25:45.076Z,5.21
2023-03-13T05:26:45.159Z,5.32
2023-03-13T05:27:45.275Z,5.10
2023-03-13T05:28:45.325Z,5.10
2023-03-13T05:29:45.407Z,5.21
2023-03-13T05:30:45.562Z,5.16
2023-03-13T05:31:45.595Z,4.94
2023-03-13T05:32:45.808Z,5.10
2023-03-13T05:33:45.767Z,5.21
2023-03-13T05:34:45.864Z,4.94
2023-03-13T05:35:45.997Z,4.89
2023-03-13T05:36:46.047Z,5.10
2023-03-13T05:37:46.137Z,5.10
2023-03-13T05:38:52.516Z,5.16
2023-03-13T05:39:46.270Z,4.89
2023-03-13T05:40:46.365Z,4.94
2023-03-13T05:41:46.436Z,5.10
2023-03-13T05:42:46.528Z,5.16
2023-03-13T05:43:46.615Z,4.89
2023-03-13T05:44:46.734Z,5.16
2023-03-13T05:45:46.784Z,5.16
2023-03-13T05:46:46.936Z,5.10
2023-03-13T05:47:46.934Z,4.94
2023-03-13T05:48:47.068Z,5.21
2023-03-13T05:49:47.077Z,4.94
2023-03-13T05:50:47.199Z,4.94
2023-03-13T05:51:47.279Z,4.89
2023-03-13T05:52:47.346Z,4.94
2023-03-13T05:53:47.441Z,4.94
2023-03-13T05:54:47.592Z,5.10
2023-03-13T05:55:47.637Z,4.94
2023-03-13T05:56:47.712Z,5.16
2023-03-13T05:57:47.835Z,4.94
2023-03-13T05:58:47.888Z,5.10
2023-03-13T05:59:47.964Z,5.10
2023-03-13T06:00:48.034Z,4.94
2023-03-13T06:01:48.120Z,5.16
2023-03-13T06:02:48.179Z,5.16
2023-03-13T06:03:48.385Z,4.94
2023-03-13T06:04:48.476Z,5.21
2023-03-13T06:05:48.380Z,4.94
2023-03-13T06:06:48.451Z,4.94
2023-03-13T06:07:48.561Z,5.10
2023-03-13T06:08:48.631Z,4.94
2023-03-13T06:09:54.696Z,4.94
2023-03-13T06:10:48.822Z,4.94
2023-03-13T06:11:48.918Z,5.21
2023-03-13T06:12:49.022Z,4.94
2023-03-13T06:13:49.077Z,4.94
2023-03-13T06:14:49.161Z,4.94
2023-03-13T06:15:49.245Z,4.94
2023-03-13T06:16:49.298Z,4.94
2023-03-13T06:17:49.397Z,4.94
2023-03-13T06:18:49.494Z,4.94
2023-03-13T06:19:49.554Z,5.42
2023-03-13T06:20:49.618Z,4.94
2023-03-13T06:21:49.702Z,5.00
2023-03-13T06:22:49.762Z,4.94
2023-03-13T06:23:49.858Z,5.00
2023-03-13T06:24:49.931Z,4.94
2023-03-13T06:25:50.002Z,4.94
2023-03-13T06:26:50.099Z,4.94
2023-03-13T06:27:50.192Z,4.94
2023-03-13T06:28:50.270Z,5.00
2023-03-13T06:29:50.362Z,5.10
2023-03-13T06:30:50.481Z,4.94
2023-03-13T06:31:50.658Z,4.94
2023-03-13T06:32:50.772Z,4.94
2023-03-13T06:33:50.743Z,4.89
2023-03-13T06:34:50.758Z,4.94
2023-03-13T06:35:56.611Z,4.94
2023-03-13T06:36:50.945Z,4.94
2023-03-13T06:37:50.977Z,4.94
2023-03-13T06:38:51.073Z,4.94
2023-03-13T06:39:51.131Z,4.94
2023-03-13T06:40:57.190Z,5.00
2023-03-13T06:41:51.327Z,4.89
2023-03-13T06:42:51.399Z,4.89
2023-03-13T06:43:51.475Z,4.94
2023-03-13T06:44:51.544Z,5.10
2023-03-13T06:45:51.623Z,5.00
2023-03-13T06:46:51.802Z,4.94
2023-03-13T06:47:51.830Z,5.00
2023-03-13T06:48:51.880Z,4.94
2023-03-13T06:49:51.958Z,5.00
2023-03-13T06:50:52.014Z,4.94
2023-03-13T06:51:52.124Z,4.94
2023-03-13T06:52:52.170Z,4.89
2023-03-13T06:53:52.324Z,4.94
2023-03-13T06:54:52.341Z,4.89
2023-03-13T06:55:52.402Z,4.94
2023-03-13T06:56:52.504Z,4.94
2023-03-13T06:57:52.579Z,4.94
2023-03-13T06:58:52.681Z,4.94
2023-03-13T06:59:52.781Z,4.94
2023-03-13T07:00:52.901Z,4.94
2023-03-13T07:01:52.924Z,5.00
2023-03-13T07:02:53.012Z,4.94
2023-03-13T07:03:53.222Z,4.94
2023-03-13T07:04:53.180Z,5.00
2023-03-13T07:05:53.237Z,4.94
2023-03-13T07:06:53.292Z,5.16
2023-03-13T07:07:53.369Z,4.94
2023-03-13T07:08:53.484Z,4.94
2023-03-13T07:09:53.558Z,4.94
2023-03-13T07:10:53.653Z,4.89
2023-03-13T07:11:59.675Z,4.94
2023-03-13T07:12:53.809Z,5.00
2023-03-13T07:13:56.522Z,4.89
2023-03-13T07:14:54.001Z,5.05
2023-03-13T07:15:54.101Z,4.94
2023-03-13T07:16:54.326Z,4.89
2023-03-13T07:17:54.204Z,5.00
2023-03-13T07:18:54.283Z,4.94
2023-03-13T07:19:54.448Z,4.89
2023-03-13T07:20:54.467Z,4.94
2023-03-13T07:21:54.572Z,5.00
2023-03-13T07:22:54.636Z,4.94
2023-03-13T07:23:54.680Z,4.94
2023-03-13T07:24:54.818Z,4.89
2023-03-13T07:25:54.858Z,5.05
2023-03-13T07:27:06.332Z,5.00
2023-03-13T07:27:55.036Z,4.94
2023-03-13T07:28:55.103Z,5.05
2023-03-13T07:29:55.166Z,4.89
2023-03-13T07:30:55.237Z,5.00
2023-03-13T07:31:55.368Z,4.89
2023-03-13T07:32:55.498Z,5.00
2023-03-13T07:33:55.483Z,4.94
2023-03-13T07:34:55.567Z,4.94
2023-03-13T07:35:55.651Z,4.94
2023-03-13T07:36:55.692Z,4.94
2023-03-13T07:37:55.792Z,4.94
2023-03-13T07:38:55.836Z,4.94
2023-03-13T07:39:55.923Z,4.94
2023-03-13T07:40:56.021Z,4.94
2023-03-13T07:41:56.149Z,4.94
2023-03-13T07:43:02.586Z,5.00
2023-03-13T07:43:56.259Z,4.94
2023-03-13T07:44:56.334Z,4.89
2023-03-13T07:45:56.449Z,4.89
2023-03-13T07:46:56.562Z,4.89
2023-03-13T07:47:56.575Z,4.94
2023-03-13T07:48:56.678Z,4.89
2023-03-13T07:49:56.805Z,4.89
2023-03-13T07:50:56.847Z,4.89
2023-03-13T07:51:56.904Z,4.94
2023-03-13T07:52:57.054Z,5.00
2023-03-13T07:53:57.061Z,4.94
2023-03-13T07:54:57.154Z,4.94
2023-03-13T07:55:57.218Z,4.94
2023-03-13T07:56:57.285Z,4.94
2023-03-13T07:57:57.369Z,5.00
2023-03-13T07:58:57.443Z,4.94
2023-03-13T07:59:57.553Z,4.89
2023-03-13T08:00:57.606Z,4.94
2023-03-13T08:01:57.722Z,4.94
2023-03-13T08:02:57.806Z,4.94
2023-03-13T08:03:57.852Z,4.94
2023-03-13T08:04:59.085Z,4.89
2023-03-13T08:05:58.031Z,4.94
2023-03-13T08:06:58.073Z,4.94
2023-03-13T08:07:58.144Z,4.94
2023-03-13T08:08:58.217Z,4.94
2023-03-13T08:09:58.303Z,4.94
2023-03-13T08:10:58.402Z,4.94
2023-03-13T08:11:58.486Z,4.94
2023-03-13T08:12:58.593Z,4.94
2023-03-13T08:14:04.623Z,4.94
2023-03-13T08:14:58.732Z,5.00
2023-03-13T08:15:58.794Z,4.89
2023-03-13T08:16:58.982Z,4.94
2023-03-13T08:17:59.004Z,4.94
2023-03-13T08:18:59.065Z,4.94
2023-03-13T08:19:59.149Z,4.94
2023-03-13T08:20:59.239Z,4.94
2023-03-13T08:21:59.341Z,4.94
2023-03-13T08:22:59.422Z,4.94
2023-03-13T08:23:59.544Z,4.94
2023-03-13T08:24:59.579Z,4.89
2023-03-13T08:25:59.680Z,4.94
2023-03-13T08:26:59.780Z,5.00
2023-03-13T08:28:01.549Z,4.89
2023-03-13T08:28:59.960Z,4.89
2023-03-13T08:30:00.051Z,5.00
2023-03-13T08:31:00.212Z,4.94
2023-03-13T08:32:00.205Z,4.94
2023-03-13T08:33:00.448Z,4.94
2023-03-13T08:34:00.373Z,5.00
2023-03-13T08:35:00.448Z,4.94
2023-03-13T08:36:00.555Z,4.94
2023-03-13T08:37:00.608Z,5.00
2023-03-13T08:38:00.681Z,4.94
2023-03-13T08:39:01.491Z,5.05
2023-03-13T08:40:00.881Z,4.94
2023-03-13T08:41:00.973Z,4.94
2023-03-13T08:42:01.086Z,4.89
2023-03-13T08:43:01.150Z,4.89
2023-03-13T08:44:01.232Z,4.94
2023-03-13T08:47:28.460Z,5.00
2023-03-13T08:48:29.508Z,5.00
2023-03-13T08:49:29.576Z,4.94
2023-03-13T08:50:29.659Z,4.89
2023-03-13T08:51:29.751Z,4.89
2023-03-13T08:52:29.840Z,4.94
2023-03-13T08:53:29.948Z,4.94
2023-03-13T08:54:30.007Z,4.94
2023-03-13T08:55:30.103Z,4.94
2023-03-13T08:56:30.183Z,4.89
2023-03-13T08:57:30.286Z,4.94
2023-03-13T08:58:30.386Z,4.94
2023-03-13T08:59:30.435Z,5.00
2023-03-13T09:00:30.541Z,4.94
2023-03-13T09:01:30.614Z,4.89
2023-03-13T09:02:30.737Z,4.89
2023-03-13T09:03:30.880Z,4.89
2023-03-13T09:04:30.865Z,5.00
2023-03-13T09:05:30.932Z,4.94
2023-03-13T09:06:31.036Z,4.89
2023-03-13T09:07:31.116Z,4.94
2023-03-13T09:08:31.217Z,4.94
2023-03-13T09:09:31.326Z,5.00
2023-03-13T09:10:31.386Z,4.89
2023-03-13T09:11:31.485Z,5.00
2023-03-13T09:12:31.811Z,4.94
2023-03-13T09:13:31.656Z,5.00
2023-03-13T09:14:31.756Z,4.89
2023-03-13T09:15:31.806Z,4.89
2023-03-13T09:16:31.874Z,4.94
2023-03-13T09:17:37.935Z,5.05
2023-03-13T09:18:32.091Z,4.94
2023-03-13T09:19:32.095Z,4.94
2023-03-13T09:20:32.229Z,4.94
2023-03-13T09:21:32.272Z,4.89
2023-03-13T09:22:32.338Z,4.94
2023-03-13T09:23:32.419Z,5.00
2023-03-13T09:24:32.525Z,4.89
2023-03-13T09:25:32.632Z,5.00
2023-03-13T09:26:32.660Z,4.94
2023-03-13T09:27:32.733Z,5.00
2023-03-13T09:28:32.825Z,4.94
2023-03-13T09:29:32.904Z,4.83
2023-03-13T09:30:33.003Z,5.00
2023-03-13T09:31:33.219Z,4.94
2023-03-13T09:32:33.247Z,4.94
2023-03-13T09:33:33.235Z,4.94
2023-03-13T09:34:33.324Z,4.94
2023-03-13T09:35:33.413Z,4.94
2023-03-13T09:36:33.510Z,4.94
2023-03-13T09:37:33.602Z,4.94
2023-03-13T09:38:33.667Z,5.00
2023-03-13T09:39:33.772Z,4.94
2023-03-13T09:40:33.841Z,4.89
2023-03-13T09:46:03.912Z,4.94
2023-03-13T09:47:03.771Z,4.89
2023-03-13T09:48:03.807Z,4.89
2023-03-13T09:49:03.915Z,4.89
2023-03-13T09:50:03.961Z,4.94
2023-03-13T09:51:04.091Z,4.94
2023-03-13T09:52:04.140Z,4.94
2023-03-13T09:53:04.230Z,4.94
2023-03-13T09:54:04.302Z,4.94
2023-03-13T09:55:04.359Z,5.00
2023-03-13T09:56:04.470Z,4.94
2023-03-13T09:57:04.512Z,5.00
2023-03-13T09:58:04.600Z,4.94
2023-03-13T09:59:04.680Z,4.94
2023-03-13T10:00:04.762Z,4.94
2023-03-13T10:01:04.853Z,4.94
2023-03-13T10:02:05.067Z,4.94
2023-03-13T10:03:05.060Z,4.94
2023-03-13T10:04:05.214Z,5.00
2023-03-13T10:05:05.235Z,4.89
2023-03-13T10:06:05.259Z,5.00
2023-03-13T10:07:05.334Z,4.94
2023-03-13T10:08:05.446Z,5.00
2023-03-13T10:09:05.543Z,5.00
2023-03-13T10:10:07.880Z,4.89
2023-03-13T10:11:05.704Z,4.94
2023-03-13T10:12:05.794Z,5.00
2023-03-13T10:13:05.892Z,4.94
2023-03-13T10:14:05.940Z,4.94
2023-03-13T10:15:06.012Z,5.00
2023-03-13T10:16:12.144Z,4.94
2023-03-13T10:17:06.194Z,4.89
2023-03-13T10:18:06.286Z,4.94
2023-03-13T10:19:06.369Z,4.94
2023-03-13T10:20:06.445Z,4.94
2023-03-13T10:21:06.530Z,4.94
2023-03-13T10:22:06.637Z,5.00
2023-03-13T10:23:06.727Z,5.00
2023-03-13T10:24:06.811Z,4.94
2023-03-13T10:25:06.853Z,4.89
2023-03-13T10:26:06.932Z,4.94
2023-03-13T10:27:07.024Z,5.00
2023-03-13T10:28:07.131Z,5.00
2023-03-13T10:29:07.207Z,4.94
2023-03-13T10:30:07.279Z,5.00
2023-03-13T10:31:07.364Z,4.89
2023-03-13T10:32:07.398Z,4.94
2023-03-13T10:33:07.485Z,4.94
2023-03-13T10:34:07.562Z,4.89
2023-03-13T10:35:07.684Z,5.00
2023-03-13T10:36:07.831Z,4.94
2023-03-13T10:37:07.871Z,4.94
2023-03-13T10:38:07.871Z,4.94
2023-03-13T10:39:07.942Z,4.94
2023-03-13T10:40:08.040Z,4.89
2023-03-13T10:41:08.144Z,4.94
2023-03-13T10:42:08.204Z,5.00
2023-03-13T10:43:08.268Z,5.05
2023-03-13T10:44:08.359Z,4.89
2023-03-13T10:45:08.463Z,4.94
2023-03-13T10:46:08.543Z,4.94
2023-03-13T10:47:14.550Z,4.94
2023-03-13T10:48:08.652Z,4.94
2023-03-13T10:49:08.732Z,4.94
2023-03-13T10:50:08.822Z,4.94
2023-03-13T10:51:08.914Z,4.94
2023-03-13T10:52:09.008Z,4.94
2023-03-13T10:53:09.086Z,4.94
2023-03-13T10:54:09.216Z,5.00
2023-03-13T10:55:09.255Z,4.89
2023-03-13T10:56:09.358Z,4.94
2023-03-13T10:57:09.450Z,4.94
2023-03-13T10:58:09.559Z,4.94
2023-03-13T10:59:09.622Z,5.00
2023-03-13T11:00:09.718Z,4.94
2023-03-13T11:01:09.759Z,5.00
2023-03-13T11:02:09.884Z,4.89
2023-03-13T11:03:10.118Z,4.94
2023-03-13T11:04:10.034Z,5.00
2023-03-13T11:05:11.812Z,4.94
2023-03-13T11:06:10.205Z,4.94
2023-03-13T11:07:10.307Z,4.94
2023-03-13T11:08:10.493Z,5.00
2023-03-13T11:09:10.506Z,5.00
2023-03-13T11:10:10.566Z,4.94
2023-03-13T11:11:10.637Z,4.94
2023-03-13T11:12:10.713Z,4.94
2023-03-13T11:13:10.789Z,4.94
2023-03-13T11:14:10.873Z,4.94
2023-03-13T11:15:11.018Z,4.94
2023-03-13T11:16:11.071Z,4.94
2023-03-13T11:17:11.119Z,5.00
2023-03-13T11:18:17.185Z,4.89
2023-03-13T11:19:11.321Z,4.94
2023-03-13T11:20:11.439Z,4.94
2023-03-13T11:21:18.162Z,4.94
2023-03-13T11:22:11.591Z,4.94
2023-03-13T11:23:11.659Z,4.94
2023-03-13T11:24:11.738Z,4.94
2023-03-13T11:25:11.816Z,5.10
2023-03-13T11:26:11.902Z,5.00
2023-03-13T11:27:12.009Z,4.89
2023-03-13T11:28:12.077Z,5.00
2023-03-13T11:29:12.138Z,4.94
2023-03-13T11:30:12.229Z,4.89
2023-03-13T11:31:12.322Z,4.94
2023-03-13T11:32:12.372Z,4.94
2023-03-13T11:33:12.482Z,5.05
2023-03-13T11:34:12.528Z,4.94
2023-03-13T11:35:12.618Z,4.94
2023-03-13T11:36:12.743Z,4.94
2023-03-13T11:37:12.802Z,4.89
2023-03-13T11:38:12.864Z,4.94
2023-03-13T11:39:12.989Z,4.89
2023-03-13T11:40:13.031Z,4.89
2023-03-13T11:41:13.156Z,4.94
2023-03-13T11:42:13.208Z,4.94
2023-03-13T11:43:24.475Z,4.94
2023-03-13T11:44:13.405Z,5.00
2023-03-13T11:45:13.489Z,4.94
2023-03-13T11:46:13.883Z,4.94
2023-03-13T11:47:13.720Z,4.89
2023-03-13T11:48:13.702Z,4.94
2023-03-13T11:49:19.749Z,4.94
2023-03-13T11:50:13.860Z,4.94
2023-03-13T11:51:14.027Z,4.89
2023-03-13T11:52:14.047Z,4.89
2023-03-13T11:53:14.207Z,4.89
2023-03-13T11:54:14.186Z,4.94
2023-03-13T11:55:14.280Z,4.94
2023-03-13T11:56:14.377Z,4.94
2023-03-13T11:57:14.478Z,4.94
2023-03-13T11:58:14.574Z,4.94
2023-03-13T11:59:14.594Z,4.94
2023-03-13T12:00:14.663Z,5.00
2023-03-13T12:01:14.868Z,4.89
2023-03-13T12:02:14.891Z,4.94
2023-03-13T12:03:14.957Z,4.89
2023-03-13T12:04:14.991Z,4.94
2023-03-13T12:05:15.105Z,4.94
2023-03-13T12:06:27.275Z,5.00
2023-03-13T12:07:15.227Z,4.73
2023-03-13T12:08:15.300Z,5.00
2023-03-13T12:09:15.415Z,4.94
2023-03-13T12:10:15.668Z,4.78
2023-03-13T12:11:15.553Z,4.94
2023-03-13T12:12:15.634Z,4.73
2023-03-13T12:13:15.717Z,4.94
2023-03-13T12:14:15.841Z,4.78
2023-03-13T12:15:18.878Z,4.78
2023-03-13T12:16:16.038Z,5.00
2023-03-13T12:17:16.081Z,4.94
2023-03-13T12:18:16.144Z,4.89
2023-03-13T12:19:16.454Z,5.00
2023-03-13T12:20:22.564Z,4.94
2023-03-13T12:21:16.388Z,4.94
2023-03-13T12:22:16.462Z,4.89
2023-03-13T12:23:16.586Z,4.94
2023-03-13T12:24:16.682Z,4.89
2023-03-13T12:25:16.728Z,4.94
2023-03-13T12:26:16.835Z,4.94
2023-03-13T12:27:16.897Z,4.89
2023-03-13T12:28:17.074Z,4.94
2023-03-13T12:29:17.056Z,4.94
2023-03-13T12:30:17.134Z,5.00
2023-03-13T12:31:17.301Z,4.94
2023-03-13T12:32:17.330Z,5.00
2023-03-13T12:33:17.349Z,4.94
2023-03-13T12:34:17.447Z,5.00
2023-03-13T12:35:17.573Z,4.73
2023-03-13T12:36:17.722Z,4.94
2023-03-13T12:37:17.750Z,4.89
2023-03-13T12:38:17.782Z,4.94
2023-03-13T12:39:17.879Z,4.89
2023-03-13T12:40:18.043Z,4.94
2023-03-13T12:41:18.038Z,4.73
2023-03-13T12:42:18.102Z,4.94
2023-03-13T12:43:18.182Z,4.73
2023-03-13T12:44:18.257Z,5.00
2023-03-13T12:45:18.393Z,5.00
2023-03-13T12:46:18.426Z,4.94
2023-03-13T12:47:18.520Z,4.89
2023-03-13T12:48:18.712Z,4.73
2023-03-13T12:49:18.689Z,4.73
2023-03-13T12:50:18.775Z,4.89
2023-03-13T12:51:24.848Z,4.94
2023-03-13T12:52:18.970Z,4.94
2023-03-13T12:53:20.934Z,4.78
2023-03-13T12:54:19.221Z,4.94
2023-03-13T12:55:19.220Z,4.94
2023-03-13T12:56:19.284Z,4.94
2023-03-13T12:57:19.404Z,4.78
2023-03-13T12:58:19.439Z,4.73
2023-03-13T12:59:19.544Z,4.94
2023-03-13T13:00:19.612Z,4.94
2023-03-13T13:01:19.710Z,4.94
2023-03-13T13:02:19.759Z,4.94
2023-03-13T13:03:19.812Z,4.73
2023-03-13T13:04:19.955Z,5.00
2023-03-13T13:05:20.001Z,4.94
2023-03-13T13:06:20.060Z,4.94
2023-03-13T13:07:20.240Z,4.73
2023-03-13T13:08:20.205Z,4.78
2023-03-13T13:09:20.267Z,4.94
2023-03-13T13:10:20.366Z,5.05
2023-03-13T13:11:21.575Z,5.00
2023-03-13T13:12:20.505Z,4.89
2023-03-13T13:13:20.605Z,5.05
2023-03-13T13:14:20.691Z,4.94
2023-03-13T13:15:20.772Z,4.89
2023-03-13T13:16:20.931Z,5.00
2023-03-13T13:17:20.926Z,4.94
2023-03-13T13:18:20.994Z,4.73
2023-03-13T13:19:21.065Z,4.73
2023-03-13T13:20:21.135Z,4.78
2023-03-13T13:21:21.219Z,4.73
2023-03-13T13:22:27.498Z,4.73
2023-03-13T13:23:21.383Z,4.78
2023-03-13T13:24:21.444Z,4.78
2023-03-13T13:25:21.539Z,4.94
2023-03-13T13:26:21.598Z,4.78